Time;durP1;ratioP1;P1;durP2;ratioP2;P2;SDS_P1;SDS_P2;PMS_P1;PMS_P2;Temp;Humidity;BMP_temperature;BMP_pressure;BME280_temperature;BME280_humidity;BME280_pressure;Samples;Min_cycle;Max_cycle;Signal;HPM_P1;HPM_P2
2023/05/19 00:00:30;;;;;;;;;;;;;;;;;;5070575;28;19924;-61
2023/05/19 00:02:56;;;;;;;;;;;;;;;;;;5061985;28;19925;-61
2023/05/19 00:05:23;;;;;;;;;;;;;;;;;;5066844;28;19979;-62
2023/05/19 00:07:49;;;;;;;;;;;;;;;;;;5072404;28;19920;-62
2023/05/19 00:10:15;;;;;;;;;;;;;;;;;;5073531;28;20397;-62
2023/05/19 00:12:41;;;;;;;;;;;;;;;;;;5071894;28;19924;-61
2023/05/19 00:15:07;;;;;;;;;;;;;;;;;;5068992;28;19920;-62
2023/05/19 00:17:33;;;;;;;;;;;;;;;;;;5071425;28;19935;-62
2023/05/19 00:19:59;;;;;;;;;;;;;;;;;;5070764;28;19947;-62
2023/05/19 00:22:26;;;;;;;;;;;;;;;;;;5068665;28;19974;-62
2023/05/19 00:24:52;;;;;;;;;;;;;;;;;;5071293;28;20019;-61
2023/05/19 00:27:18;;;;;;;;;;;;;;;;;;5071013;28;20082;-61
2023/05/19 00:29:44;;;;;;;;;;;;;;;;;;5069197;28;19921;-61
2023/05/19 00:32:10;;;;;;;;;;;;;;;;;;5066327;28;19931;-62
2023/05/19 00:34:36;;;;;;;;;;;;;;;;;;5073738;28;19920;-62
2023/05/19 00:37:02;;;;;;;;;;;;;;;;;;5072907;28;20417;-62
2023/05/19 00:39:28;;;;;;;;;;;;;;;;;;5073349;28;19963;-62
2023/05/19 00:41:54;;;;;;;;;;;;;;;;;;5073240;28;19948;-62
2023/05/19 00:44:20;;;;;;;;;;;;;;;;;;5071238;28;20007;-62
2023/05/19 00:46:46;;;;;;;;;;;;;;;;;;5048057;28;20362;-62
2023/05/19 00:49:11;;;;;;;;;;;;;;;;;;5073029;28;19920;-62
2023/05/19 00:51:37;;;;;;;;;;;;;;;;;;5067827;28;19921;-62
2023/05/19 00:54:03;;;;;;;;;;;;;;;;;;5072290;28;20014;-62
2023/05/19 00:56:29;;;;;;;;;;;;;;;;;;5050226;28;19927;-62
2023/05/19 00:58:55;;;;;;;;;;;;;;;;;;5071991;28;20281;-62
2023/05/19 01:01:21;;;;;;;;;;;;;;;;;;5078930;28;19920;-62
2023/05/19 01:03:47;;;;;;;;;;;;;;;;;;5071431;28;19966;-62
2023/05/19 01:06:13;;;;;;;;;;;;;;;;;;5070580;28;19986;-62
2023/05/19 01:08:40;;;;;;;;;;;;;;;;;;5073300;28;20316;-61
2023/05/19 01:11:05;;;;;;;;;;;;;;;;;;5070309;28;20011;-61
2023/05/19 01:13:31;;;;;;;;;;;;;;;;;;5071260;28;20457;-62
2023/05/19 01:15:57;;;;;;;;;;;;;;;;;;5072258;28;19924;-64
2023/05/19 01:18:23;;;;;;;;;;;;;;;;;;5070857;28;19942;-62
2023/05/19 01:20:49;;;;;;;;;;;;;;;;;;5072204;28;19924;-62
2023/05/19 01:23:15;;;;;;;;;;;;;;;;;;5072511;28;19928;-63
2023/05/19 01:25:41;;;;;;;;;;;;;;;;;;5072767;28;20242;-62
2023/05/19 01:28:07;;;;;;;;;;;;;;;;;;5071761;28;19928;-63
2023/05/19 01:30:33;;;;;;;;;;;;;;;;;;5071774;28;19920;-62
2023/05/19 01:32:59;;;;;;;;;;;;;;;;;;5071222;28;20297;-61
2023/05/19 01:35:25;;;;;;;;;;;;;;;;;;5052739;28;19928;-62
2023/05/19 01:37:51;;;;;;;;;;;;;;;;;;5066677;28;19921;-61
2023/05/19 01:40:17;;;;;;;;;;;;;;;;;;5072355;28;19943;-62
2023/05/19 01:42:44;;;;;;;;;;;;;;;;;;5072111;28;20026;-61
2023/05/19 01:45:10;;;;;;;;;;;;;;;;;;5072223;28;19985;-61
2023/05/19 01:47:39;;;;;;;;;;;;;;;;;;5070642;28;20031;-62
2023/05/19 01:50:05;;;;;;;;;;;;;;;;;;5070137;28;19924;-62
2023/05/19 01:52:31;;;;;;;;;;;;;;;;;;5082204;28;19951;-62
2023/05/19 01:54:56;;;;;;;;;;;;;;;;;;5091672;28;19924;-62
2023/05/19 01:57:22;;;;;;;;;;;;;;;;;;5071504;28;19931;-61
2023/05/19 01:59:48;;;;;;;;;;;;;;;;;;5072037;28;19921;-61
2023/05/19 02:02:14;;;;;;;;;;;;;;;;;;5071785;28;19966;-61
2023/05/19 02:04:40;;;;;;;;;;;;;;;;;;5072303;28;19967;-61
2023/05/19 02:07:06;;;;;;;;;;;;;;;;;;5051066;28;19925;-61
2023/05/19 02:09:32;;;;;;;;;;;;;;;;;;5071235;28;19930;-62
2023/05/19 02:11:58;;;;;;;;;;;;;;;;;;5070749;28;19924;-62
2023/05/19 02:14:24;;;;;;;;;;;;;;;;;;5069451;28;19967;-62
2023/05/19 02:16:49;;;;;;;;;;;;;;;;;;5067163;28;19924;-62
2023/05/19 02:19:15;;;;;;;;;;;;;;;;;;5075485;28;19955;-62
2023/05/19 02:21:41;;;;;;;;;;;;;;;;;;5077081;28;19921;-61
2023/05/19 02:24:07;;;;;;;;;;;;;;;;;;5071753;28;19920;-62
2023/05/19 02:26:33;;;;;;;;;;;;;;;;;;5080929;28;20889;-62
2023/05/19 02:28:59;;;;;;;;;;;;;;;;;;5075990;28;19965;-62
2023/05/19 02:31:25;;;;;;;;;;;;;;;;;;5075353;28;20294;-62
2023/05/19 02:33:51;;;;;;;;;;;;;;;;;;5077696;28;19928;-62
2023/05/19 02:36:17;;;;;;;;;;;;;;;;;;5078287;28;19932;-63
2023/05/19 02:38:43;;;;;;;;;;;;;;;;;;5078407;28;20011;-63
2023/05/19 02:41:09;;;;;;;;;;;;;;;;;;5078798;28;20015;-63
2023/05/19 02:43:35;;;;;;;;;;;;;;;;;;5089082;28;19931;-62
2023/05/19 02:46:01;;;;;;;;;;;;;;;;;;5099422;28;19924;-63
2023/05/19 02:48:27;;;;;;;;;;;;;;;;;;5094362;28;19927;-62
2023/05/19 02:50:53;;;;;;;;;;;;;;;;;;5078808;28;20432;-60
2023/05/19 02:53:19;;;;;;;;;;;;;;;;;;5078527;28;19929;-62
2023/05/19 02:55:45;;;;;;;;;;;;;;;;;;5078279;28;19921;-62
2023/05/19 02:58:11;;;;;;;;;;;;;;;;;;5076983;28;19931;-62
2023/05/19 03:00:37;;;;;;;;;;;;;;;;;;5077578;28;19924;-62
2023/05/19 03:03:03;;;;;;;;;;;;;;;;;;5077747;28;19928;-62
2023/05/19 03:05:29;;;;;;;;;;;;;;;;;;5076035;28;19931;-62
2023/05/19 03:07:55;;;;;;;;;;;;;;;;;;5072287;28;19921;-62
2023/05/19 03:10:21;;;;;;;;;;;;;;;;;;5077271;28;19970;-62
2023/05/19 03:12:47;;;;;;;;;;;;;;;;;;5075771;28;19925;-62
2023/05/19 03:15:13;;;;;;;;;;;;;;;;;;5076516;28;20377;-63
2023/05/19 03:17:39;;;;;;;;;;;;;;;;;;5084209;28;19920;-63
2023/05/19 03:20:05;;;;;;;;;;;;;;;;;;5091873;28;20429;-62
2023/05/19 03:22:31;;;;;;;;;;;;;;;;;;5067435;28;19921;-62
2023/05/19 03:24:57;;;;;;;;;;;;;;;;;;5076682;28;19920;-62
2023/05/19 03:27:23;;;;;;;;;;;;;;;;;;5076870;28;19932;-62
2023/05/19 03:29:49;;;;;;;;;;;;;;;;;;5074397;28;19928;-62
2023/05/19 03:32:15;;;;;;;;;;;;;;;;;;5073852;28;20251;-62
2023/05/19 03:34:41;;;;;;;;;;;;;;;;;;5070311;28;19929;-62
2023/05/19 03:37:09;;;;;;;;;;;;;;;;;;5068545;28;20499;-62
2023/05/19 03:39:35;;;;;;;;;;;;;;;;;;5071938;28;19927;-61
2023/05/19 03:42:01;;;;;;;;;;;;;;;;;;5073461;28;19928;-63
2023/05/19 03:44:27;;;;;;;;;;;;;;;;;;5074229;28;20031;-62
2023/05/19 03:46:53;;;;;;;;;;;;;;;;;;5074279;28;19998;-62
2023/05/19 03:49:19;;;;;;;;;;;;;;;;;;5077884;28;19920;-62
2023/05/19 03:51:44;;;;;;;;;;;;;;;;;;5083597;28;19931;-62
2023/05/19 03:54:10;;;;;;;;;;;;;;;;;;5074776;28;19929;-62
2023/05/19 03:56:36;;;;;;;;;;;;;;;;;;5072924;28;19927;-62
2023/05/19 03:59:04;;;;;;;;;;;;;;;;;;5072286;28;19994;-62
2023/05/19 04:01:30;;;;;;;;;;;;;;;;;;5071593;28;20701;-62
2023/05/19 04:03:56;;;;;;;;;;;;;;;;;;5071574;28;19920;-61
2023/05/19 04:06:22;;;;;;;;;;;;;;;;;;5071842;28;19924;-63
2023/05/19 04:08:48;;;;;;;;;;;;;;;;;;5071822;28;20255;-63
2023/05/19 04:11:14;;;;;;;;;;;;;;;;;;5067187;28;19958;-60
2023/05/19 04:13:40;;;;;;;;;;;;;;;;;;5070677;28;20289;-63
2023/05/19 04:16:06;;;;;;;;;;;;;;;;;;5070479;28;19921;-60
2023/05/19 04:18:32;;;;;;;;;;;;;;;;;;5072138;28;19927;-62
2023/05/19 04:20:58;;;;;;;;;;;;;;;;;;5072724;28;19924;-61
2023/05/19 04:23:24;;;;;;;;;;;;;;;;;;5073522;28;19986;-61
2023/05/19 04:25:50;;;;;;;;;;;;;;;;;;5083236;28;19920;-63
2023/05/19 04:28:16;;;;;;;;;;;;;;;;;;5072974;28;19924;-63
2023/05/19 04:30:45;;;;;;;;;;;;;;;;;;5075124;28;19963;-63
2023/05/19 04:33:11;;;;;;;;;;;;;;;;;;5070988;28;20716;-61
2023/05/19 04:35:38;;;;;;;;;;;;;;;;;;5068110;28;19920;-63
2023/05/19 04:38:04;;;;;;;;;;;;;;;;;;5064737;28;20369;-63
2023/05/19 04:40:30;;;;;;;;;;;;;;;;;;5070394;28;19928;-62
2023/05/19 04:42:56;;;;;;;;;;;;;;;;;;5071167;28;19924;-62
2023/05/19 04:45:24;;;;;;;;;;;;;;;;;;5068387;28;19987;-62
2023/05/19 04:47:51;;;;;;;;;;;;;;;;;;5068791;28;19921;-61
2023/05/19 04:50:17;;;;;;;;;;;;;;;;;;5071268;28;20007;-62
2023/05/19 04:52:46;;;;;;;;;;;;;;;;;;5071826;28;20003;-62
2023/05/19 04:55:12;;;;;;;;;;;;;;;;;;5072914;28;20278;-63
2023/05/19 04:57:38;;;;;;;;;;;;;;;;;;5073346;28;19920;-62
2023/05/19 05:00:06;;;;;;;;;;;;;;;;;;5074678;28;19920;-63
2023/05/19 05:02:33;;;;;;;;;;;;;;;;;;5071394;28;20642;-63
2023/05/19 05:04:59;;;;;;;;;;;;;;;;;;5070427;28;19928;-62
2023/05/19 05:07:24;;;;;;;;;;;;;;;;;;5071494;28;19928;-62
2023/05/19 05:09:50;;;;;;;;;;;;;;;;;;5070666;28;20018;-62
2023/05/19 05:12:16;;;;;;;;;;;;;;;;;;5071470;28;19973;-63
2023/05/19 05:14:42;;;;;;;;;;;;;;;;;;5071981;28;19924;-62
2023/05/19 05:17:08;;;;;;;;;;;;;;;;;;5073364;28;20333;-62
2023/05/19 05:19:34;;;;;;;;;;;;;;;;;;5071197;28;19927;-62
2023/05/19 05:22:00;;;;;;;;;;;;;;;;;;5078122;28;19924;-62
2023/05/19 05:24:26;;;;;;;;;;;;;;;;;;5072003;28;19995;-62
2023/05/19 05:26:52;;;;;;;;;;;;;;;;;;5071639;28;19973;-62
2023/05/19 05:29:18;;;;;;;;;;;;;;;;;;5072851;28;19928;-62
2023/05/19 05:31:44;;;;;;;;;;;;;;;;;;5072094;28;19924;-62
2023/05/19 05:34:10;;;;;;;;;;;;;;;;;;5071937;28;19925;-62
2023/05/19 05:36:36;;;;;;;;;;;;;;;;;;5069374;28;20289;-62
2023/05/19 05:39:02;;;;;;;;;;;;;;;;;;5053984;28;19920;-62
2023/05/19 05:41:33;;;;;;;;;;;;;;;;;;5072134;28;20427;-62
2023/05/19 05:43:59;;;;;;;;;;;;;;;;;;5070818;28;19928;-63
2023/05/19 05:46:25;;;;;;;;;;;;;;;;;;5071646;28;19921;-62
2023/05/19 05:48:51;;;;;;;;;;;;;;;;;;5071492;28;19974;-62
2023/05/19 05:51:17;;;;;;;;;;;;;;;;;;5087067;28;19920;-62
2023/05/19 05:53:43;;;;;;;;;;;;;;;;;;5071260;28;19990;-62
2023/05/19 05:56:09;;;;;;;;;;;;;;;;;;5050998;28;20011;-62
2023/05/19 05:58:36;;;;;;;;;;;;;;;;;;5071314;28;19964;-61
2023/05/19 06:01:03;;;;;;;;;;;;;;;;;;5069989;28;19927;-62
2023/05/19 06:03:30;;;;;;;;;;;;;;;;;;5070448;28;20007;-62
2023/05/19 06:05:56;;;;;;;;;;;;;;;;;;5071240;28;19939;-61
2023/05/19 06:08:22;;;;;;;;;;;;;;;;;;5073959;28;19920;-62
2023/05/19 06:10:48;;;;;;;;;;;;;;;;;;5067853;28;19920;-62
2023/05/19 06:13:17;;;;;;;;;;;;;;;;;;5066973;28;19925;-62
2023/05/19 06:15:43;;;;;;;;;;;;;;;;;;5069059;28;19920;-62
2023/05/19 06:18:09;;;;;;;;;;;;;;;;;;5066288;28;19932;-62
2023/05/19 06:20:35;;;;;;;;;;;;;;;;;;5070322;28;20289;-63
2023/05/19 06:23:01;;;;;;;;;;;;;;;;;;5067506;28;19951;-62
2023/05/19 06:25:27;;;;;;;;;;;;;;;;;;5070886;28;19920;-62
2023/05/19 06:27:53;;;;;;;;;;;;;;;;;;5067817;28;19924;-62
2023/05/19 06:30:19;;;;;;;;;;;;;;;;;;5062443;28;20014;-62
2023/05/19 06:32:45;;;;;;;;;;;;;;;;;;5053261;28;19924;-62
2023/05/19 06:35:11;;;;;;;;;;;;;;;;;;5065511;28;19983;-62
2023/05/19 06:37:37;;;;;;;;;;;;;;;;;;5068865;28;20365;-62
2023/05/19 06:40:04;;;;;;;;;;;;;;;;;;5068841;28;19971;-62
2023/05/19 06:42:30;;;;;;;;;;;;;;;;;;5072179;28;20388;-62
2023/05/19 06:44:56;;;;;;;;;;;;;;;;;;5069295;28;19920;-63
2023/05/19 06:47:22;;;;;;;;;;;;;;;;;;5068135;28;19929;-63
2023/05/19 06:49:54;;;;;;;;;;;;;;;;;;5068161;28;19924;-63
2023/05/19 06:52:19;;;;;;;;;;;;;;;;;;5066739;28;19924;-62
2023/05/19 06:54:45;;;;;;;;;;;;;;;;;;5068325;28;19946;-61
2023/05/19 06:57:11;;;;;;;;;;;;;;;;;;5071079;28;20425;-61
2023/05/19 06:59:39;;;;;;;;;;;;;;;;;;5069894;28;19921;-61
2023/05/19 07:02:05;;;;;;;;;;;;;;;;;;5067244;28;20251;-61
2023/05/19 07:04:31;;;;;;;;;;;;;;;;;;5063089;28;19978;-62
2023/05/19 07:06:57;;;;;;;;;;;;;;;;;;5081775;28;19929;-61
2023/05/19 07:09:23;;;;;;;;;;;;;;;;;;5055641;28;20330;-61
2023/05/19 07:11:49;;;;;;;;;;;;;;;;;;5070490;28;19921;-61
2023/05/19 07:14:15;;;;;;;;;;;;;;;;;;5074291;28;19928;-62
2023/05/19 07:16:41;;;;;;;;;;;;;;;;;;5072023;28;19964;-62
2023/05/19 07:19:07;;;;;;;;;;;;;;;;;;5072603;28;19927;-63
2023/05/19 07:21:32;;;;;;;;;;;;;;;;;;5071661;28;20011;-63
2023/05/19 07:23:58;;;;;;;;;;;;;;;;;;5072981;28;20309;-62
2023/05/19 07:26:25;;;;;;;;;;;;;;;;;;5074156;28;19927;-61
2023/05/19 07:28:51;;;;;;;;;;;;;;;;;;5073308;28;19931;-62
2023/05/19 07:31:17;;;;;;;;;;;;;;;;;;5073393;28;19928;-62
2023/05/19 07:33:46;;;;;;;;;;;;;;;;;;5073897;28;19925;-62
2023/05/19 07:36:11;;;;;;;;;;;;;;;;;;5054378;28;19928;-62
2023/05/19 07:38:37;;;;;;;;;;;;;;;;;;5070164;28;20309;-62
2023/05/19 07:41:03;;;;;;;;;;;;;;;;;;5073162;28;19978;-62
2023/05/19 07:43:29;;;;;;;;;;;;;;;;;;5073322;28;19927;-63
2023/05/19 07:45:55;;;;;;;;;;;;;;;;;;5073935;28;20007;-61
2023/05/19 07:48:21;;;;;;;;;;;;;;;;;;5083106;28;19925;-62
2023/05/19 07:50:47;;;;;;;;;;;;;;;;;;5088322;28;19931;-62
2023/05/19 07:53:13;;;;;;;;;;;;;;;;;;5083797;28;19924;-62
2023/05/19 07:55:39;;;;;;;;;;;;;;;;;;5081762;28;19920;-60
2023/05/19 07:58:05;;;;;;;;;;;;;;;;;;5081219;28;19928;-60
2023/05/19 08:00:31;;;;;;;;;;;;;;;;;;5081211;28;20003;-61
2023/05/19 08:02:57;;;;;;;;;;;;;;;;;;5082453;28;19945;-61
2023/05/19 08:05:24;;;;;;;;;;;;;;;;;;5081880;28;19924;-60
2023/05/19 08:07:50;;;;;;;;;;;;;;;;;;5085227;28;19924;-61
2023/05/19 08:10:16;;;;;;;;;;;;;;;;;;5082281;28;19947;-60
2023/05/19 08:12:43;;;;;;;;;;;;;;;;;;5071792;28;19935;-60
2023/05/19 08:15:10;;;;;;;;;;;;;;;;;;5090269;28;20057;-59
2023/05/19 08:17:36;;;;;;;;;;;;;;;;;;5075797;28;20019;-60
2023/05/19 08:20:03;;;;;;;;;;;;;;;;;;5082441;28;20000;-60
2023/05/19 08:22:29;;;;;;;;;;;;;;;;;;5083235;28;20393;-60
2023/05/19 08:24:55;;;;;;;;;;;;;;;;;;5083193;28;19946;-60
2023/05/19 08:27:21;;;;;;;;;;;;;;;;;;5079311;28;20071;-60
2023/05/19 08:29:47;;;;;;;;;;;;;;;;;;5089467;28;20392;-60
2023/05/19 08:32:13;;;;;;;;;;;;;;;;;;5084978;28;20324;-60
2023/05/19 08:34:40;;;;;;;;;;;;;;;;;;5086667;28;19924;-62
2023/05/19 08:37:06;;;;;;;;;;;;;;;;;;5088599;28;19999;-62
2023/05/19 08:39:33;;;;;;;;;;;;;;;;;;5085920;28;19920;-61
2023/05/19 08:42:00;;;;;;;;;;;;;;;;;;5085847;28;19930;-62
2023/05/19 08:44:26;;;;;;;;;;;;;;;;;;5081415;28;19964;-62
2023/05/19 08:46:51;;;;;;;;;;;;;;;;;;5071925;28;19967;-62
2023/05/19 08:49:17;;;;;;;;;;;;;;;;;;5071734;28;19920;-63
2023/05/19 08:51:43;;;;;;;;;;;;;;;;;;5070274;28;19921;-62
2023/05/19 08:54:09;;;;;;;;;;;;;;;;;;5073403;28;19924;-62
2023/05/19 08:56:35;;;;;;;;;;;;;;;;;;5068626;28;19927;-62
2023/05/19 08:59:02;;;;;;;;;;;;;;;;;;5066162;28;19966;-62
2023/05/19 09:01:29;;;;;;;;;;;;;;;;;;5069104;28;19927;-62
2023/05/19 09:03:55;;;;;;;;;;;;;;;;;;5054579;28;19931;-61
2023/05/19 09:06:21;;;;;;;;;;;;;;;;;;5062605;28;20400;-63
2023/05/19 09:08:47;;;;;;;;;;;;;;;;;;5065312;28;20391;-63
2023/05/19 09:11:13;;;;;;;;;;;;;;;;;;5062143;28;20096;-62
2023/05/19 09:13:39;;;;;;;;;;;;;;;;;;5065297;28;19954;-63
2023/05/19 09:16:05;;;;;;;;;;;;;;;;;;5073175;28;20010;-62
2023/05/19 09:18:32;;;;;;;;;;;;;;;;;;5067159;28;21285;-62
2023/05/19 09:20:59;;;;;;;;;;;;;;;;;;5084886;22;20415;-63
2023/05/19 09:23:27;;;;;;;;;;;;;;;;;;5089250;28;20408;-64
2023/05/19 09:25:53;;;;;;;;;;;;;;;;;;5085244;28;19973;-64
2023/05/19 09:28:19;;;;;;;;;;;;;;;;;;5085548;28;20353;-64
2023/05/19 09:30:45;;;;;;;;;;;;;;;;;;5091958;28;19965;-64
2023/05/19 09:33:11;;;;;;;;;;;;;;;;;;5077472;28;20028;-64
2023/05/19 09:35:37;;;;;;;;;;;;;;;;;;5089223;28;19924;-64
2023/05/19 09:38:03;;;;;;;;;;;;;;;;;;5089721;28;20311;-64
2023/05/19 09:40:29;;;;;;;;;;;;;;;;;;5089667;28;19927;-64
2023/05/19 09:42:55;;;;;;;;;;;;;;;;;;5099846;28;20388;-64
2023/05/19 09:45:21;;;;;;;;;;;;;;;;;;5088454;28;19928;-64
2023/05/19 09:47:47;;;;;;;;;;;;;;;;;;5090507;28;19973;-63
2023/05/19 09:50:13;;;;;;;;;;;;;;;;;;5087293;28;20366;-64
2023/05/19 09:52:39;;;;;;;;;;;;;;;;;;5078755;28;19932;-63
2023/05/19 09:55:05;;;;;;;;;;;;;;;;;;5086585;28;20438;-63
2023/05/19 09:57:32;;;;;;;;;;;;;;;;;;5090793;28;19967;-64
2023/05/19 09:59:58;;;;;;;;;;;;;;;;;;5089069;28;19930;-64
2023/05/19 10:02:24;;;;;;;;;;;;;;;;;;5087768;28;20587;-64
2023/05/19 10:04:50;;;;;;;;;;;;;;;;;;5088126;28;19924;-65
2023/05/19 10:07:17;;;;;;;;;;;;;;;;;;5084589;28;20270;-64
2023/05/19 10:09:43;;;;;;;;;;;;;;;;;;5079356;28;19920;-65
2023/05/19 10:12:09;;;;;;;;;;;;;;;;;;5090974;28;20285;-64
2023/05/19 10:14:34;;;;;;;;;;;;;;;;;;5086692;28;19932;-64
2023/05/19 10:17:00;;;;;;;;;;;;;;;;;;5087856;28;19931;-65
2023/05/19 10:19:26;;;;;;;;;;;;;;;;;;5084139;28;20264;-65
2023/05/19 10:21:52;;;;;;;;;;;;;;;;;;5089586;28;20301;-64
2023/05/19 10:24:18;;;;;;;;;;;;;;;;;;5075844;28;19924;-65
2023/05/19 10:26:44;;;;;;;;;;;;;;;;;;5087380;28;19943;-64
2023/05/19 10:29:10;;;;;;;;;;;;;;;;;;5080693;28;20015;-64
2023/05/19 10:31:36;;;;;;;;;;;;;;;;;;5081397;28;20353;-65
2023/05/19 10:34:02;;;;;;;;;;;;;;;;;;5089179;28;19935;-65
2023/05/19 10:36:28;;;;;;;;;;;;;;;;;;5078966;28;19967;-64
2023/05/19 10:38:54;;;;;;;;;;;;;;;;;;5088887;28;20748;-64
2023/05/19 10:41:21;;;;;;;;;;;;;;;;;;5089045;28;19924;-64
2023/05/19 10:43:47;;;;;;;;;;;;;;;;;;5090867;28;19972;-64
2023/05/19 10:46:13;;;;;;;;;;;;;;;;;;5089295;28;19920;-64
2023/05/19 10:48:39;;;;;;;;;;;;;;;;;;5068068;28;19924;-65
2023/05/19 10:51:05;;;;;;;;;;;;;;;;;;5090372;28;19931;-64
2023/05/19 10:53:31;;;;;;;;;;;;;;;;;;5095545;28;20347;-64
2023/05/19 10:56:01;;;;;;;;;;;;;;;;;;5093858;28;20494;-63
2023/05/19 10:58:27;;;;;;;;;;;;;;;;;;5111179;28;20298;-63
2023/05/19 11:00:53;;;;;;;;;;;;;;;;;;5115683;28;19920;-63
2023/05/19 11:03:22;;;;;;;;;;;;;;;;;;5116068;28;19923;-63
2023/05/19 11:05:51;;;;;;;;;;;;;;;;;;5086285;28;19960;-63
2023/05/19 11:08:17;;;;;;;;;;;;;;;;;;5075170;28;19932;-63
2023/05/19 11:10:44;;;;;;;;;;;;;;;;;;5074938;28;20740;-63
2023/05/19 11:13:10;;;;;;;;;;;;;;;;;;5081971;28;19939;-64
2023/05/19 11:15:36;;;;;;;;;;;;;;;;;;5093457;28;20026;-65
2023/05/19 11:18:02;;;;;;;;;;;;;;;;;;5094529;28;19928;-64
2023/05/19 11:20:27;;;;;;;;;;;;;;;;;;5076328;28;19934;-63
2023/05/19 11:22:53;;;;;;;;;;;;;;;;;;5098702;28;20323;-64
2023/05/19 11:25:19;;;;;;;;;;;;;;;;;;5102252;28;20409;-63
2023/05/19 11:27:45;;;;;;;;;;;;;;;;;;5095222;28;20392;-64
2023/05/19 11:30:13;;;;;;;;;;;;;;;;;;5094763;28;20377;-64
2023/05/19 11:32:41;;;;;;;;;;;;;;;;;;5094701;28;19924;-63
2023/05/19 11:35:07;;;;;;;;;;;;;;;;;;5094519;28;19924;-63
2023/05/19 11:37:33;;;;;;;;;;;;;;;;;;5093921;28;20487;-64
2023/05/19 11:39:59;;;;;;;;;;;;;;;;;;5102450;28;20012;-64
2023/05/19 11:42:25;;;;;;;;;;;;;;;;;;5115248;28;19988;-64
2023/05/19 11:44:51;;;;;;;;;;;;;;;;;;5113613;28;20303;-63
2023/05/19 11:47:17;;;;;;;;;;;;;;;;;;5106241;28;19920;-63
2023/05/19 11:49:43;;;;;;;;;;;;;;;;;;5093144;28;19927;-64
2023/05/19 11:52:09;;;;;;;;;;;;;;;;;;5093154;28;20631;-64
2023/05/19 11:54:35;;;;;;;;;;;;;;;;;;5094509;28;19935;-63
2023/05/19 11:57:01;;;;;;;;;;;;;;;;;;5108054;28;20029;-64
2023/05/19 11:59:27;;;;;;;;;;;;;;;;;;5105349;28;20026;-64
2023/05/19 12:01:53;;;;;;;;;;;;;;;;;;5094309;28;19924;-64
2023/05/19 12:04:19;;;;;;;;;;;;;;;;;;5093888;28;19920;-64
2023/05/19 12:06:45;;;;;;;;;;;;;;;;;;5094011;28;20427;-63
2023/05/19 12:09:11;;;;;;;;;;;;;;;;;;5094037;28;19928;-63
2023/05/19 12:11:37;;;;;;;;;;;;;;;;;;5092676;28;19931;-63
2023/05/19 12:14:03;;;;;;;;;;;;;;;;;;5107706;28;20523;-63
2023/05/19 12:16:29;;;;;;;;;;;;;;;;;;5101805;28;19919;-64
2023/05/19 12:18:54;;;;;;;;;;;;;;;;;;5091917;28;19931;-63
2023/05/19 12:21:20;;;;;;;;;;;;;;;;;;5093399;28;20365;-63
2023/05/19 12:23:46;;;;;;;;;;;;;;;;;;5093879;28;19920;-63
2023/05/19 12:26:12;;;;;;;;;;;;;;;;;;5093777;28;19920;-63
2023/05/19 12:28:38;;;;;;;;;;;;;;;;;;5093863;28;19977;-63
2023/05/19 12:31:04;;;;;;;;;;;;;;;;;;5103293;28;19924;-63
2023/05/19 12:33:30;;;;;;;;;;;;;;;;;;5114190;28;19923;-63
2023/05/19 12:35:56;;;;;;;;;;;;;;;;;;5113975;28;19924;-63
2023/05/19 12:38:22;;;;;;;;;;;;;;;;;;5104805;28;19924;-64
2023/05/19 12:40:48;;;;;;;;;;;;;;;;;;5093541;28;19963;-64
2023/05/19 12:43:14;;;;;;;;;;;;;;;;;;5093639;28;20060;-64
2023/05/19 12:45:41;;;;;;;;;;;;;;;;;;5093694;28;19920;-63
2023/05/19 12:48:07;;;;;;;;;;;;;;;;;;5108100;28;19959;-63
2023/05/19 12:50:33;;;;;;;;;;;;;;;;;;5113955;28;19985;-64
2023/05/19 12:52:59;;;;;;;;;;;;;;;;;;5098239;28;19950;-63
2023/05/19 12:55:24;;;;;;;;;;;;;;;;;;5093234;28;20023;-65
2023/05/19 12:57:53;;;;;;;;;;;;;;;;;;5092652;28;20352;-64
2023/05/19 13:00:29;;;;;;;;;;;;;;;;;;5091687;28;20246;-64
2023/05/19 13:02:55;;;;;;;;;;;;;;;;;;5091688;28;19924;-64
2023/05/19 13:05:21;;;;;;;;;;;;;;;;;;5104547;28;19924;-64
2023/05/19 13:07:47;;;;;;;;;;;;;;;;;;5092880;28;20277;-64
2023/05/19 13:10:13;;;;;;;;;;;;;;;;;;5089982;28;19924;-64
2023/05/19 13:12:39;;;;;;;;;;;;;;;;;;5092620;28;19924;-65
2023/05/19 13:15:05;;;;;;;;;;;;;;;;;;5082435;28;20462;-64
2023/05/19 13:17:33;;;;;;;;;;;;;;;;;;5086764;28;19928;-63
2023/05/19 13:19:59;;;;;;;;;;;;;;;;;;5092054;28;19931;-63
2023/05/19 13:22:25;;;;;;;;;;;;;;;;;;5110352;28;19923;-64
2023/05/19 13:24:52;;;;;;;;;;;;;;;;;;5111870;28;19931;-64
2023/05/19 13:27:18;;;;;;;;;;;;;;;;;;5097641;28;19959;-64
2023/05/19 13:29:43;;;;;;;;;;;;;;;;;;5092683;28;20037;-63
2023/05/19 13:32:10;;;;;;;;;;;;;;;;;;5091163;28;19955;-64
2023/05/19 13:34:35;;;;;;;;;;;;;;;;;;5092480;28;19924;-64
2023/05/19 13:37:01;;;;;;;;;;;;;;;;;;5100816;28;19978;-64
2023/05/19 13:39:27;;;;;;;;;;;;;;;;;;5112356;28;19924;-63
2023/05/19 13:41:53;;;;;;;;;;;;;;;;;;5112361;28;19919;-63
2023/05/19 13:44:19;;;;;;;;;;;;;;;;;;5112120;28;20277;-63
2023/05/19 13:46:45;;;;;;;;;;;;;;;;;;5100264;28;19924;-63
2023/05/19 13:49:11;;;;;;;;;;;;;;;;;;5092137;28;19982;-63
2023/05/19 13:51:37;;;;;;;;;;;;;;;;;;5092090;28;19951;-64
2023/05/19 13:54:03;;;;;;;;;;;;;;;;;;5098035;28;20532;-63
2023/05/19 13:56:30;;;;;;;;;;;;;;;;;;5091718;28;19966;-63
2023/05/19 13:58:56;;;;;;;;;;;;;;;;;;5091509;28;19983;-64
2023/05/19 14:01:22;;;;;;;;;;;;;;;;;;5091852;28;19920;-64
2023/05/19 14:03:48;;;;;;;;;;;;;;;;;;5089798;28;19961;-65
2023/05/19 14:06:14;;;;;;;;;;;;;;;;;;5089716;28;19920;-64
2023/05/19 14:08:41;;;;;;;;;;;;;;;;;;5101840;28;20011;-64
2023/05/19 14:11:06;;;;;;;;;;;;;;;;;;5111933;28;19949;-64
2023/05/19 14:13:33;;;;;;;;;;;;;;;;;;5111539;28;19923;-63
2023/05/19 14:15:58;;;;;;;;;;;;;;;;;;5111658;28;20082;-63
2023/05/19 14:18:25;;;;;;;;;;;;;;;;;;5099836;28;20015;-63
2023/05/19 14:20:51;;;;;;;;;;;;;;;;;;5090408;28;19928;-64
2023/05/19 14:23:18;;;;;;;;;;;;;;;;;;5104104;28;19927;-64
2023/05/19 14:25:44;;;;;;;;;;;;;;;;;;5094230;28;20415;-64
2023/05/19 14:28:10;;;;;;;;;;;;;;;;;;5091836;28;19920;-64
2023/05/19 14:30:36;;;;;;;;;;;;;;;;;;5092037;28;19920;-64
2023/05/19 14:33:02;;;;;;;;;;;;;;;;;;5091735;28;19928;-64
2023/05/19 14:35:28;;;;;;;;;;;;;;;;;;5092031;28;20411;-64
2023/05/19 14:37:54;;;;;;;;;;;;;;;;;;5085718;28;19928;-65
2023/05/19 14:40:20;;;;;;;;;;;;;;;;;;5083485;28;19924;-65
2023/05/19 14:42:46;;;;;;;;;;;;;;;;;;5089342;28;19969;-65
2023/05/19 14:45:12;;;;;;;;;;;;;;;;;;5084078;28;19928;-66
2023/05/19 14:47:38;;;;;;;;;;;;;;;;;;5086401;28;19921;-66
2023/05/19 14:50:03;;;;;;;;;;;;;;;;;;5086880;28;19978;-66
2023/05/19 14:52:29;;;;;;;;;;;;;;;;;;5085889;28;19938;-65
2023/05/19 14:54:55;;;;;;;;;;;;;;;;;;5089832;28;19920;-66
2023/05/19 14:57:21;;;;;;;;;;;;;;;;;;5091444;28;19928;-65
2023/05/19 14:59:47;;;;;;;;;;;;;;;;;;5087658;28;19920;-65
2023/05/19 15:02:13;;;;;;;;;;;;;;;;;;5069182;28;19931;-65
2023/05/19 15:04:39;;;;;;;;;;;;;;;;;;5084131;28;19956;-65
2023/05/19 15:07:05;;;;;;;;;;;;;;;;;;5089121;28;19927;-65
2023/05/19 15:09:31;;;;;;;;;;;;;;;;;;5087550;28;20370;-65
2023/05/19 15:11:59;;;;;;;;;;;;;;;;;;5084483;28;19969;-65
2023/05/19 15:14:25;;;;;;;;;;;;;;;;;;5088175;28;19927;-65
2023/05/19 15:16:51;;;;;;;;;;;;;;;;;;5086262;28;20385;-65
2023/05/19 15:19:17;;;;;;;;;;;;;;;;;;5068549;28;19920;-65
2023/05/19 15:21:44;;;;;;;;;;;;;;;;;;5082464;28;19928;-65
2023/05/19 15:24:10;;;;;;;;;;;;;;;;;;5080393;28;19920;-65
2023/05/19 15:26:36;;;;;;;;;;;;;;;;;;5090789;28;19961;-65
2023/05/19 15:29:02;;;;;;;;;;;;;;;;;;5091529;28;19924;-65
2023/05/19 15:31:28;;;;;;;;;;;;;;;;;;5089357;28;19994;-65
2023/05/19 15:33:53;;;;;;;;;;;;;;;;;;5093474;28;19924;-65
2023/05/19 15:36:19;;;;;;;;;;;;;;;;;;5091700;28;19932;-65
2023/05/19 15:38:45;;;;;;;;;;;;;;;;;;5091823;28;20340;-65
2023/05/19 15:41:11;;;;;;;;;;;;;;;;;;5075205;28;20588;-64
2023/05/19 15:43:37;;;;;;;;;;;;;;;;;;5092999;28;20026;-65
2023/05/19 15:46:03;;;;;;;;;;;;;;;;;;5089759;28;19920;-64
2023/05/19 15:48:31;;;;;;;;;;;;;;;;;;5089412;28;20288;-63
2023/05/19 15:50:57;;;;;;;;;;;;;;;;;;5092395;28;20016;-61
2023/05/19 15:53:23;;;;;;;;;;;;;;;;;;5091399;28;20018;-61
2023/05/19 15:55:48;;;;;;;;;;;;;;;;;;5091278;28;19920;-62
2023/05/19 15:58:15;;;;;;;;;;;;;;;;;;5089394;28;19954;-63
2023/05/19 16:00:41;;;;;;;;;;;;;;;;;;5085914;28;20015;-63
2023/05/19 16:03:07;;;;;;;;;;;;;;;;;;5093244;28;20003;-63
2023/05/19 16:05:33;;;;;;;;;;;;;;;;;;5091671;28;20322;-63
2023/05/19 16:07:58;;;;;;;;;;;;;;;;;;5107716;27;19945;-62
2023/05/19 16:10:24;;;;;;;;;;;;;;;;;;5088068;28;19962;-62
2023/05/19 16:12:50;;;;;;;;;;;;;;;;;;5091048;28;19928;-60
2023/05/19 16:15:16;;;;;;;;;;;;;;;;;;5088252;28;20019;-61
2023/05/19 16:17:42;;;;;;;;;;;;;;;;;;5085671;28;20668;-61
2023/05/19 16:20:08;;;;;;;;;;;;;;;;;;5083419;28;19928;-62
2023/05/19 16:22:34;;;;;;;;;;;;;;;;;;5089741;28;19920;-62
2023/05/19 16:25:00;;;;;;;;;;;;;;;;;;5088387;28;21904;-62
2023/05/19 16:27:26;;;;;;;;;;;;;;;;;;5093427;28;19920;-61
2023/05/19 16:29:52;;;;;;;;;;;;;;;;;;5089768;28;19928;-61
2023/05/19 16:32:18;;;;;;;;;;;;;;;;;;5089304;28;19927;-62
2023/05/19 16:34:43;;;;;;;;;;;;;;;;;;5094510;28;19924;-62
2023/05/19 16:37:09;;;;;;;;;;;;;;;;;;5088247;28;19920;-62